Time;durP1;ratioP1;P1;durP2;ratioP2;P2;SDS_P1;SDS_P2;PMS_P1;PMS_P2;Temp;Humidity;BMP_temperature;BMP_pressure;BME280_temperature;BME280_humidity;BME280_pressure;Samples;Min_cycle;Max_cycle;Signal;HPM_P1;HPM_P2
2022/01/01 00:00:12;;;;;;;30.57;8.35;;;5.30;91.40;;;;;;1872779;77;21045;-44
2022/01/01 00:02:41;;;;;;;15.35;7.45;;;5.30;91.50;;;;;;1872694;77;21065;-45
2022/01/01 00:05:12;;;;;;;15.75;7.22;;;5.40;91.60;;;;;;1872744;76;20997;-45
2022/01/01 00:07:44;;;;;;;14.93;7.47;;;5.40;91.50;;;;;;1872812;76;21095;-45
2022/01/01 00:10:13;;;;;;;17.23;8.40;;;5.40;91.50;;;;;;1872758;76;21033;-45
2022/01/01 00:12:42;;;;;;;11.63;6.97;;;5.50;91.70;;;;;;1872861;76;21018;-44
2022/01/01 00:15:11;;;;;;;15.05;7.17;;;5.60;91.70;;;;;;1872803;75;21030;-44
2022/01/01 00:17:41;;;;;;;12.00;7.15;;;5.70;91.70;;;;;;1872847;75;21038;-45
2022/01/01 00:20:12;;;;;;;18.17;8.18;;;5.80;91.70;;;;;;1872755;77;21083;-46
2022/01/01 00:22:41;;;;;;;11.15;5.97;;;5.90;91.70;;;;;;1872797;75;21088;-45
2022/01/01 00:25:13;;;;;;;12.25;6.42;;;5.90;91.50;;;;;;1872850;75;21005;-45
2022/01/01 00:27:42;;;;;;;12.90;6.75;;;6.00;91.60;;;;;;1872842;75;21484;-45
2022/01/01 00:30:12;;;;;;;12.18;6.65;;;6.00;91.60;;;;;;1872939;75;21034;-45
2022/01/01 00:32:41;;;;;;;12.65;6.55;;;6.10;91.60;;;;;;1872921;76;21030;-44
2022/01/01 00:35:11;;;;;;;12.28;6.78;;;6.10;91.60;;;;;;1872912;75;21034;-46
2022/01/01 00:37:40;;;;;;;18.98;8.50;;;6.20;91.50;;;;;;1872936;75;21127;-44
2022/01/01 00:40:10;;;;;;;14.13;7.72;;;6.20;91.40;;;;;;1872892;75;21010;-44
2022/01/01 00:42:39;;;;;;;14.23;7.10;;;6.10;91.20;;;;;;1872817;75;21034;-44
2022/01/01 00:45:09;;;;;;;11.15;6.72;;;6.10;91.10;;;;;;1872958;76;21033;-44
2022/01/01 00:47:38;;;;;;;10.43;6.47;;;6.00;90.90;;;;;;1872896;75;21033;-44
2022/01/01 00:50:08;;;;;;;10.32;5.33;;;5.90;91.00;;;;;;1872852;75;21101;-45
2022/01/01 00:52:38;;;;;;;8.83;5.35;;;5.90;91.10;;;;;;1872804;76;21029;-44
2022/01/01 00:55:07;;;;;;;8.43;5.30;;;5.90;91.20;;;;;;1872886;76;21100;-46
2022/01/01 00:57:37;;;;;;;7.87;5.53;;;5.90;91.30;;;;;;1872769;75;21009;-44
2022/01/01 01:00:08;;;;;;;7.72;4.95;;;5.90;91.40;;;;;;1872913;76;21637;-45
2022/01/01 01:02:37;;;;;;;9.58;5.20;;;6.00;91.40;;;;;;1872789;75;21001;-44
2022/01/01 01:05:06;;;;;;;6.75;5.08;;;6.00;91.40;;;;;;1872728;76;21159;-45
2022/01/01 01:07:36;;;;;;;11.03;5.35;;;6.10;91.50;;;;;;1872742;75;21460;-47
2022/01/01 01:10:06;;;;;;;8.50;5.17;;;6.10;91.40;;;;;;1872829;76;21005;-44
2022/01/01 01:12:43;;;;;;;8.90;5.92;;;6.20;91.50;;;;;;1872847;77;21077;-44
2022/01/01 01:15:11;;;;;;;9.58;6.28;;;6.20;91.50;;;;;;1872441;75;21464;-45
2022/01/01 01:17:40;;;;;;;8.88;6.12;;;6.20;91.30;;;;;;1872762;75;21029;-45
2022/01/01 01:20:10;;;;;;;8.88;5.42;;;6.20;91.40;;;;;;1872729;75;21084;-45
2022/01/01 01:22:40;;;;;;;6.47;5.08;;;6.20;91.50;;;;;;1872669;77;21128;-45
2022/01/01 01:25:10;;;;;;;7.92;5.42;;;6.20;91.50;;;;;;1872716;75;21025;-44
2022/01/01 01:27:40;;;;;;;8.20;5.25;;;6.20;91.50;;;;;;1872726;76;21030;-45
2022/01/01 01:30:12;;;;;;;8.70;6.00;;;6.30;91.40;;;;;;1872679;75;21038;-45
2022/01/01 01:32:41;;;;;;;10.70;6.67;;;6.30;91.50;;;;;;1872755;75;21057;-44
2022/01/01 01:35:13;;;;;;;8.75;5.72;;;6.30;91.50;;;;;;1872707;76;21022;-45
2022/01/01 01:37:42;;;;;;;8.48;5.10;;;6.30;91.50;;;;;;1872804;76;21092;-45
2022/01/01 01:40:12;;;;;;;8.90;5.28;;;6.30;91.40;;;;;;1872715;75;21029;-45
2022/01/01 01:42:43;;;;;;;8.38;5.80;;;6.30;91.40;;;;;;1872675;75;21033;-46
2022/01/01 01:45:17;;;;;;;10.85;6.25;;;6.30;91.40;;;;;;1872811;77;21108;-45
2022/01/01 01:47:44;;;;;;;10.45;5.70;;;6.30;91.20;;;;;;1872486;75;21096;-44
2022/01/01 01:50:15;;;;;;;7.95;5.42;;;6.30;91.20;;;;;;1872755;75;21033;-45
2022/01/01 01:52:53;;;;;;;8.55;5.92;;;6.20;91.30;;;;;;1872853;76;21206;-45
2022/01/01 01:55:23;;;;;;;8.18;5.58;;;6.20;91.40;;;;;;1872912;75;21406;-44
2022/01/01 01:57:52;;;;;;;8.60;5.42;;;6.30;91.50;;;;;;1872893;75;21006;-45
2022/01/01 02:00:54;;;;;;;9.55;5.95;;;6.30;91.50;;;;;;1872734;75;21022;-44
2022/01/01 02:03:03;;;;;;;10.78;6.00;;;6.30;91.50;;;;;;1867668;75;21027;-44
2022/01/01 02:05:36;;;;;;;9.00;6.17;;;6.40;91.50;;;;;;1872845;75;21065;-44
2022/01/01 02:08:06;;;;;;;9.83;6.28;;;6.40;91.60;;;;;;1872795;76;21428;-44
2022/01/01 02:10:36;;;;;;;10.75;6.92;;;6.40;91.50;;;;;;1872739;75;21033;-44
2022/01/01 02:13:12;;;;;;;10.90;6.87;;;6.40;91.50;;;;;;1872721;76;21025;-45
2022/01/01 02:18:16;;;;;;;8.10;6.03;;;6.40;91.30;;;;;;1872781;75;21167;-45
2022/01/01 02:20:49;;;;;;;10.10;7.00;;;6.40;91.20;;;;;;1872788;75;21030;-44
2022/01/01 02:23:27;;;;;;;9.63;7.50;;;6.30;91.30;;;;;;1872323;77;21105;-44
2022/01/01 02:25:52;;;;;;;10.95;6.92;;;6.30;91.30;;;;;;1871408;77;21083;-45
2022/01/01 02:28:23;;;;;;;9.03;6.17;;;6.30;91.40;;;;;;1872833;75;21101;-45
2022/01/01 02:30:52;;;;;;;10.60;6.37;;;6.30;91.40;;;;;;1872663;75;21077;-44
2022/01/01 02:33:21;;;;;;;8.90;6.25;;;6.30;91.40;;;;;;1872704;76;21029;-46
2022/01/01 02:35:51;;;;;;;9.58;6.15;;;6.30;91.30;;;;;;1872752;75;21030;-46
2022/01/01 02:38:20;;;;;;;9.80;6.60;;;6.30;91.40;;;;;;1872761;76;21535;-44
2022/01/01 02:40:50;;;;;;;9.15;7.05;;;6.30;91.50;;;;;;1872732;75;21034;-45
2022/01/01 02:43:19;;;;;;;12.18;7.33;;;6.30;91.40;;;;;;1872644;75;21034;-45
2022/01/01 02:45:49;;;;;;;10.63;7.03;;;6.30;91.20;;;;;;1872809;76;21034;-44
2022/01/01 02:48:20;;;;;;;10.05;6.47;;;6.20;91.10;;;;;;1872777;77;21053;-44
2022/01/01 02:50:53;;;;;;;12.93;7.67;;;6.20;91.00;;;;;;1872650;75;21132;-45
2022/01/01 02:53:23;;;;;;;11.90;6.75;;;6.10;91.10;;;;;;1872836;77;21104;-44
2022/01/01 02:55:53;;;;;;;12.07;7.35;;;6.10;91.10;;;;;;1872954;75;21009;-45
2022/01/01 02:58:22;;;;;;;12.37;8.05;;;6.10;91.30;;;;;;1872746;75;21029;-44
2022/01/01 03:00:52;;;;;;;13.58;8.58;;;6.10;91.20;;;;;;1872738;77;21029;-44
2022/01/01 03:03:21;;;;;;;14.78;7.67;;;6.10;91.00;;;;;;1872734;76;21029;-45
2022/01/01 03:05:50;;;;;;;17.65;9.73;;;6.00;91.10;;;;;;1872696;75;21111;-44
2022/01/01 03:08:19;;;;;;;19.95;9.03;;;6.00;90.80;;;;;;1872714;76;21025;-45
2022/01/01 03:10:49;;;;;;;16.10;8.10;;;5.90;90.80;;;;;;1872699;75;21029;-45
2022/01/01 03:13:19;;;;;;;15.45;9.20;;;5.90;90.90;;;;;;1872673;76;21029;-45
2022/01/01 03:15:49;;;;;;;13.25;7.42;;;5.80;91.00;;;;;;1872837;77;21070;-45
2022/01/01 03:18:18;;;;;;;17.85;9.28;;;5.80;91.10;;;;;;1872796;77;21029;-45
2022/01/01 03:20:47;;;;;;;17.90;9.38;;;5.80;91.30;;;;;;1872675;75;21053;-47
2022/01/01 03:23:17;;;;;;;19.37;9.28;;;5.90;91.40;;;;;;1872793;76;21084;-44
2022/01/01 03:25:46;;;;;;;16.10;8.60;;;5.90;91.40;;;;;;1872859;75;21166;-45
2022/01/01 03:28:16;;;;;;;13.98;7.58;;;5.90;91.40;;;;;;1872760;77;21010;-44
2022/01/01 03:30:46;;;;;;;12.58;8.18;;;5.90;91.20;;;;;;1872776;75;21103;-44
2022/01/01 03:33:15;;;;;;;12.53;7.20;;;5.90;91.30;;;;;;1872774;75;21030;-45
2022/01/01 03:35:44;;;;;;;15.30;7.00;;;5.90;91.50;;;;;;1872868;75;21096;-45
2022/01/01 03:38:14;;;;;;;14.50;8.00;;;5.90;91.40;;;;;;1872867;76;21049;-45
2022/01/01 03:40:43;;;;;;;13.65;7.70;;;5.90;91.60;;;;;;1872786;75;21080;-44
2022/01/01 03:43:13;;;;;;;12.05;7.25;;;5.90;91.40;;;;;;1872843;76;21049;-46
2022/01/01 03:45:42;;;;;;;12.55;8.15;;;5.90;91.40;;;;;;1872765;75;21163;-45
2022/01/01 03:48:11;;;;;;;15.15;8.23;;;5.90;91.40;;;;;;1872750;75;21069;-44
2022/01/01 03:50:41;;;;;;;17.92;8.75;;;5.90;91.50;;;;;;1872785;75;21073;-44
2022/01/01 03:53:11;;;;;;;14.03;8.73;;;5.90;91.60;;;;;;1872874;77;21029;-44
2022/01/01 03:55:41;;;;;;;15.60;8.78;;;5.90;91.70;;;;;;1872763;75;21034;-44
2022/01/01 03:58:10;;;;;;;15.28;8.40;;;5.90;91.50;;;;;;1872688;75;21096;-45
2022/01/01 04:00:40;;;;;;;10.75;7.28;;;5.90;91.50;;;;;;1872752;76;21101;-45
2022/01/01 04:03:11;;;;;;;13.13;7.58;;;5.90;91.40;;;;;;1872836;75;21033;-45
2022/01/01 04:05:41;;;;;;;12.93;6.87;;;5.80;91.60;;;;;;1872769;76;21025;-44
2022/01/01 04:08:11;;;;;;;11.03;6.37;;;5.90;92.00;;;;;;1872779;75;21005;-44
2022/01/01 04:10:41;;;;;;;8.95;6.12;;;6.00;91.80;;;;;;1872742;75;21029;-44
2022/01/01 04:13:11;;;;;;;10.65;6.12;;;6.00;91.80;;;;;;1872844;75;21178;-44
2022/01/01 04:15:42;;;;;;;10.88;6.00;;;6.10;91.70;;;;;;1872737;77;21030;-44
2022/01/01 04:18:14;;;;;;;10.63;5.95;;;6.10;91.70;;;;;;1872744;76;21091;-44
2022/01/01 04:20:44;;;;;;;8.83;5.50;;;6.20;91.70;;;;;;1872771;76;21302;-46
2022/01/01 04:23:14;;;;;;;8.70;6.55;;;6.30;91.70;;;;;;1872699;77;21025;-44
2022/01/01 04:25:47;;;;;;;10.03;5.78;;;6.30;91.70;;;;;;1872876;76;21033;-45
2022/01/01 04:28:14;;;;;;;7.60;5.25;;;6.30;91.20;;;;;;1871946;75;21111;-45
2022/01/01 04:30:43;;;;;;;9.65;5.85;;;6.30;91.40;;;;;;1872817;75;21030;-45
2022/01/01 04:33:13;;;;;;;9.88;5.90;;;6.30;91.40;;;;;;1872880;75;21116;-44
2022/01/01 04:35:42;;;;;;;7.08;4.92;;;6.20;91.20;;;;;;1872821;77;21033;-44
2022/01/01 04:38:26;;;;;;;8.63;5.70;;;6.20;91.30;;;;;;1872754;75;21025;-44
2022/01/01 04:40:42;;;;;;;7.67;5.20;;;6.20;91.50;;;;;;1870089;76;21038;-45
2022/01/01 04:43:11;;;;;;;6.87;5.08;;;6.20;91.60;;;;;;1872884;76;21029;-45
2022/01/01 04:45:40;;;;;;;9.53;4.50;;;6.20;91.50;;;;;;1872877;75;21017;-45
2022/01/01 04:48:10;;;;;;;8.18;4.42;;;6.20;91.70;;;;;;1872828;76;21488;-46
2022/01/01 04:50:39;;;;;;;6.17;4.35;;;6.20;91.70;;;;;;1872677;75;21139;-45
2022/01/01 04:53:13;;;;;;;7.03;4.50;;;6.20;91.70;;;;;;1872725;77;21018;-45
2022/01/01 04:55:39;;;;;;;7.08;4.95;;;6.30;91.70;;;;;;1872348;76;21030;-45
2022/01/01 04:58:08;;;;;;;7.00;4.25;;;6.30;91.30;;;;;;1872711;76;21103;-44
2022/01/01 05:00:37;;;;;;;6.58;3.70;;;6.20;91.20;;;;;;1872821;77;21085;-45
2022/01/01 05:03:07;;;;;;;7.17;4.45;;;6.20;90.80;;;;;;1872735;75;21120;-45
2022/01/01 05:05:36;;;;;;;7.55;3.90;;;6.20;91.20;;;;;;1872722;77;21029;-45
2022/01/01 05:08:05;;;;;;;6.22;4.17;;;6.10;91.20;;;;;;1872784;75;21115;-45
2022/01/01 05:10:35;;;;;;;5.78;3.83;;;6.10;91.00;;;;;;1872799;76;21049;-47
2022/01/01 05:13:04;;;;;;;7.30;4.28;;;6.10;91.00;;;;;;1872801;75;21076;-46
2022/01/01 05:15:34;;;;;;;6.33;4.08;;;6.00;90.80;;;;;;1872800;75;21010;-45
2022/01/01 05:18:03;;;;;;;5.65;3.60;;;6.00;91.00;;;;;;1872898;75;21034;-47
2022/01/01 05:20:32;;;;;;;6.25;3.60;;;5.90;91.00;;;;;;1872673;76;21115;-44
2022/01/01 05:23:02;;;;;;;7.37;3.80;;;5.90;90.70;;;;;;1872824;75;21049;-45
2022/01/01 05:25:31;;;;;;;7.28;4.60;;;5.80;91.10;;;;;;1872744;75;21096;-45
2022/01/01 05:28:00;;;;;;;6.37;4.15;;;5.80;91.40;;;;;;1872698;75;21049;-45
2022/01/01 05:30:30;;;;;;;7.15;3.50;;;5.90;91.50;;;;;;1872823;77;21112;-45
2022/01/01 05:33:03;;;;;;;6.37;4.35;;;6.00;91.40;;;;;;1872745;77;21056;-45
2022/01/01 05:35:32;;;;;;;8.63;5.30;;;6.00;91.40;;;;;;1872845;75;21096;-44
2022/01/01 05:38:02;;;;;;;5.37;3.72;;;6.00;91.20;;;;;;1872821;75;21034;-44
2022/01/01 05:40:31;;;;;;;5.58;3.70;;;6.10;91.20;;;;;;1872725;75;21029;-45
2022/01/01 05:43:00;;;;;;;5.30;3.67;;;6.10;91.20;;;;;;1872795;75;21095;-45
2022/01/01 05:45:30;;;;;;;5.33;3.10;;;6.10;91.20;;;;;;1872778;75;21030;-48
2022/01/01 05:47:59;;;;;;;4.35;3.10;;;6.20;91.10;;;;;;1872671;76;21107;-45
2022/01/01 05:50:28;;;;;;;4.62;2.80;;;6.30;90.90;;;;;;1872738;75;21065;-47
2022/01/01 05:52:58;;;;;;;4.55;3.45;;;6.30;90.80;;;;;;1872815;75;21109;-45
2022/01/01 05:55:28;;;;;;;4.00;2.92;;;6.40;90.90;;;;;;1872738;75;21033;-48
2022/01/01 05:57:57;;;;;;;4.95;3.35;;;6.40;90.90;;;;;;1872829;75;21026;-47
2022/01/01 06:00:26;;;;;;;4.80;2.80;;;6.40;90.90;;;;;;1872767;75;21085;-46
2022/01/01 06:03:03;;;;;;;3.98;3.00;;;6.50;90.80;;;;;;1872868;76;21100;-48
2022/01/01 06:05:30;;;;;;;4.17;2.60;;;6.50;90.90;;;;;;1872103;75;21596;-45
2022/01/01 06:08:00;;;;;;;4.80;3.83;;;6.50;90.70;;;;;;1872726;77;21034;-46
2022/01/01 06:10:30;;;;;;;4.60;3.37;;;6.60;90.70;;;;;;1872730;75;21009;-47
2022/01/01 06:12:59;;;;;;;4.70;3.20;;;6.60;90.70;;;;;;1872769;77;21081;-44
2022/01/01 06:15:28;;;;;;;3.67;2.60;;;6.60;90.80;;;;;;1872818;76;21096;-44
2022/01/01 06:17:58;;;;;;;5.12;2.55;;;6.70;90.60;;;;;;1872739;75;21428;-44
2022/01/01 06:20:27;;;;;;;4.95;2.70;;;6.80;90.80;;;;;;1872815;75;21005;-45
2022/01/01 06:22:56;;;;;;;5.58;3.65;;;6.80;90.60;;;;;;1872760;77;21093;-44
2022/01/01 06:25:26;;;;;;;4.70;2.62;;;6.90;90.70;;;;;;1872774;76;21049;-45
2022/01/01 06:27:55;;;;;;;3.02;2.25;;;6.90;90.50;;;;;;1872693;75;21108;-47
2022/01/01 06:30:25;;;;;;;4.87;2.70;;;6.90;90.30;;;;;;1872764;75;21005;-45
2022/01/01 06:32:54;;;;;;;5.00;3.12;;;6.90;90.20;;;;;;1872727;75;21029;-48
2022/01/01 06:35:24;;;;;;;3.33;2.83;;;7.00;90.40;;;;;;1872767;77;21108;-47
2022/01/01 06:37:54;;;;;;;3.67;2.50;;;7.00;90.20;;;;;;1872746;76;21021;-48
2022/01/01 06:40:23;;;;;;;2.90;2.20;;;7.00;90.10;;;;;;1872679;76;21029;-47
2022/01/01 06:42:52;;;;;;;3.02;2.52;;;7.10;90.20;;;;;;1872570;75;21025;-45
2022/01/01 06:45:21;;;;;;;3.30;2.33;;;7.10;90.20;;;;;;1872665;75;21440;-45
2022/01/01 06:47:51;;;;;;;4.42;2.85;;;7.20;90.40;;;;;;1872658;75;21097;-47
2022/01/01 06:50:20;;;;;;;4.22;2.92;;;7.30;90.30;;;;;;1872800;76;21167;-47
2022/01/01 06:52:50;;;;;;;3.58;2.27;;;7.30;90.40;;;;;;1872696;75;21041;-46
2022/01/01 06:55:20;;;;;;;3.37;2.15;;;7.40;90.30;;;;;;1872735;75;21005;-46
2022/01/01 06:57:49;;;;;;;4.33;2.87;;;7.50;90.10;;;;;;1872975;76;21030;-45
2022/01/01 07:00:19;;;;;;;4.47;2.65;;;7.60;90.10;;;;;;1872879;77;21086;-46
2022/01/01 07:02:48;;;;;;;3.67;2.42;;;7.70;89.90;;;;;;1872839;75;21099;-45
2022/01/01 07:05:17;;;;;;;2.83;1.75;;;7.70;89.70;;;;;;1872974;76;21006;-48
2022/01/01 07:07:46;;;;;;;3.10;2.10;;;7.80;89.50;;;;;;1872859;76;21092;-47
2022/01/01 07:10:16;;;;;;;2.30;1.70;;;7.80;89.70;;;;;;1872894;76;21155;-45
2022/01/01 07:12:45;;;;;;;3.33;2.40;;;7.90;89.70;;;;;;1872939;76;21100;-46
2022/01/01 07:15:20;;;;;;;3.72;2.60;;;7.90;89.60;;;;;;1872944;75;21041;-48
2022/01/01 07:17:46;;;;;;;2.85;2.40;;;8.00;89.20;;;;;;1871777;76;21104;-45
2022/01/01 07:20:15;;;;;;;4.03;2.52;;;8.00;89.00;;;;;;1872860;75;21014;-45
2022/01/01 07:22:46;;;;;;;3.67;2.67;;;8.10;89.00;;;;;;1872980;75;21005;-48
2022/01/01 07:25:16;;;;;;;2.27;2.08;;;8.10;89.30;;;;;;1872927;77;21033;-48
2022/01/01 07:27:45;;;;;;;3.47;2.75;;;8.10;89.00;;;;;;1872863;76;21033;-45
2022/01/01 07:30:15;;;;;;;2.20;1.87;;;8.10;89.00;;;;;;1872900;76;21479;-47
2022/01/01 07:32:46;;;;;;;3.22;2.40;;;8.10;88.80;;;;;;1872840;75;21030;-46
2022/01/01 07:35:18;;;;;;;3.17;2.42;;;8.10;89.20;;;;;;1872881;75;21042;-45
2022/01/01 07:37:47;;;;;;;4.15;2.45;;;8.10;89.00;;;;;;1872783;76;21038;-46
2022/01/01 07:40:17;;;;;;;3.70;2.60;;;8.10;89.40;;;;;;1872918;75;21010;-47
2022/01/01 07:42:48;;;;;;;4.80;2.60;;;8.10;89.40;;;;;;1872674;75;21029;-47
2022/01/01 07:45:18;;;;;;;3.90;2.50;;;8.20;89.60;;;;;;1872741;75;21103;-45
2022/01/01 07:47:47;;;;;;;6.05;2.52;;;8.20;89.70;;;;;;1872820;75;21120;-45
2022/01/01 07:50:16;;;;;;;4.72;2.70;;;8.30;89.70;;;;;;1872912;75;21045;-45
2022/01/01 07:52:46;;;;;;;3.17;2.50;;;8.30;89.40;;;;;;1872702;75;21057;-46
2022/01/01 07:55:15;;;;;;;3.22;2.30;;;8.40;89.30;;;;;;1872785;76;21025;-44
2022/01/01 07:57:45;;;;;;;2.70;1.90;;;8.40;88.90;;;;;;1872811;75;21087;-45
2022/01/01 08:00:15;;;;;;;4.95;3.22;;;8.50;88.80;;;;;;1872731;75;21024;-45
2022/01/01 08:02:45;;;;;;;3.33;2.47;;;8.50;88.90;;;;;;1872789;76;21046;-48
2022/01/01 08:05:18;;;;;;;3.47;2.10;;;8.50;88.80;;;;;;1872773;76;21033;-46
2022/01/01 08:07:48;;;;;;;2.65;1.65;;;8.50;88.50;;;;;;1872736;75;21037;-48
2022/01/01 08:10:20;;;;;;;4.78;2.65;;;8.50;88.40;;;;;;1872740;76;21033;-46
2022/01/01 08:12:48;;;;;;;3.47;2.20;;;8.50;88.60;;;;;;1872802;75;21104;-48
2022/01/01 08:15:17;;;;;;;3.83;2.85;;;8.50;88.60;;;;;;1872894;75;21030;-47
2022/01/01 08:17:47;;;;;;;4.28;2.45;;;8.50;88.80;;;;;;1872846;76;21103;-45
2022/01/01 08:20:16;;;;;;;5.15;3.30;;;8.60;88.80;;;;;;1872880;75;21046;-44
2022/01/01 08:22:45;;;;;;;5.37;2.65;;;8.60;88.70;;;;;;1872740;76;21009;-48
2022/01/01 08:25:16;;;;;;;9.95;5.87;;;8.60;88.70;;;;;;1872701;75;21455;-46
2022/01/01 08:27:45;;;;;;;6.28;2.70;;;8.60;88.50;;;;;;1872814;75;21037;-48
2022/01/01 08:30:14;;;;;;;3.20;2.25;;;8.60;88.80;;;;;;1872743;76;20997;-45
2022/01/01 08:32:43;;;;;;;3.00;2.22;;;8.70;88.70;;;;;;1872732;75;21025;-45
2022/01/01 08:35:13;;;;;;;4.20;2.42;;;8.70;88.60;;;;;;1872873;77;21485;-46
2022/01/01 08:37:42;;;;;;;4.12;2.67;;;8.70;88.40;;;;;;1872877;76;21033;-45
2022/01/01 08:40:12;;;;;;;7.90;2.65;;;8.70;88.80;;;;;;1872786;75;21053;-45
2022/01/01 08:42:41;;;;;;;3.35;2.37;;;8.70;88.50;;;;;;1872745;75;21009;-48
2022/01/01 08:45:10;;;;;;;5.03;2.92;;;8.80;88.30;;;;;;1872806;75;21099;-46
2022/01/01 08:47:40;;;;;;;3.67;2.65;;;8.80;88.30;;;;;;1872830;75;21747;-46
2022/01/01 08:50:10;;;;;;;3.98;2.80;;;8.80;88.40;;;;;;1872784;76;21053;-44
2022/01/01 08:52:39;;;;;;;3.70;2.35;;;8.80;88.40;;;;;;1872752;75;21108;-44
2022/01/01 08:55:09;;;;;;;3.30;2.10;;;8.90;88.20;;;;;;1872823;75;21042;-47
2022/01/01 08:57:39;;;;;;;2.65;2.05;;;8.90;87.50;;;;;;1872856;75;21045;-48
2022/01/01 09:00:11;;;;;;;4.37;2.83;;;8.90;87.60;;;;;;1872835;77;21171;-48
2022/01/01 09:02:40;;;;;;;3.08;2.17;;;9.00;87.60;;;;;;1872608;75;21049;-47
2022/01/01 09:05:10;;;;;;;3.30;2.80;;;9.00;87.00;;;;;;1872819;76;21143;-47
2022/01/01 09:07:40;;;;;;;5.28;3.27;;;9.00;86.90;;;;;;1872820;77;21101;-45
2022/01/01 09:10:10;;;;;;;4.65;3.15;;;9.00;87.30;;;;;;1872825;75;21022;-47
2022/01/01 09:12:39;;;;;;;7.28;2.55;;;9.10;86.90;;;;;;1872832;75;21104;-46
2022/01/01 09:15:09;;;;;;;3.95;3.00;;;9.10;86.30;;;;;;1872797;76;21065;-47
2022/01/01 09:17:38;;;;;;;4.35;2.55;;;9.10;86.50;;;;;;1872728;75;21034;-48
2022/01/01 09:20:08;;;;;;;2.92;2.15;;;9.20;86.30;;;;;;1872852;75;21041;-45
2022/01/01 09:22:37;;;;;;;4.65;2.70;;;9.20;85.60;;;;;;1872758;76;21099;-48
2022/01/01 09:25:07;;;;;;;3.77;2.67;;;9.20;85.70;;;;;;1872741;75;21029;-44
2022/01/01 09:27:37;;;;;;;6.12;3.05;;;9.20;85.80;;;;;;1872795;75;21069;-44
2022/01/01 09:30:07;;;;;;;11.60;3.12;;;9.20;86.20;;;;;;1872866;77;21010;-45
2022/01/01 09:32:36;;;;;;;4.33;2.52;;;9.20;85.90;;;;;;1872709;75;21045;-44
2022/01/01 09:35:07;;;;;;;4.72;3.42;;;9.20;85.60;;;;;;1872843;75;21010;-48
2022/01/01 09:37:37;;;;;;;3.10;2.60;;;9.30;85.00;;;;;;1872719;75;21010;-44
2022/01/01 09:40:07;;;;;;;6.55;2.92;;;9.20;85.50;;;;;;1872779;76;21452;-48
2022/01/01 09:42:39;;;;;;;3.83;2.80;;;9.20;85.50;;;;;;1872655;75;21033;-48
2022/01/01 09:45:09;;;;;;;6.33;3.15;;;9.20;85.30;;;;;;1872738;75;21045;-48
2022/01/01 09:47:39;;;;;;;3.87;2.70;;;9.20;85.50;;;;;;1872668;75;21034;-46
2022/01/01 09:50:09;;;;;;;3.65;2.95;;;9.20;85.90;;;;;;1872811;77;21030;-49
2022/01/01 09:52:39;;;;;;;3.75;2.77;;;9.20;85.70;;;;;;1872688;75;21033;-46
2022/01/01 09:55:09;;;;;;;3.33;1.90;;;9.20;85.80;;;;;;1872900;75;21033;-45
2022/01/01 09:57:39;;;;;;;4.70;2.40;;;9.20;85.00;;;;;;1872838;77;21083;-46
2022/01/01 10:00:09;;;;;;;5.03;2.60;;;9.20;85.60;;;;;;1872804;76;21029;-48
2022/01/01 10:02:39;;;;;;;5.37;3.22;;;9.20;85.70;;;;;;1872616;76;21104;-45
2022/01/01 10:05:08;;;;;;;3.85;2.70;;;9.20;86.00;;;;;;1872659;76;21049;-45
2022/01/01 10:07:38;;;;;;;4.40;2.67;;;9.20;86.10;;;;;;1872690;76;21033;-49
2022/01/01 10:10:25;;;;;;;3.92;2.60;;;9.20;86.40;;;;;;1872805;76;21103;-48
2022/01/01 10:12:54;;;;;;;8.50;2.92;;;9.20;86.30;;;;;;1872703;75;21115;-47
2022/01/01 10:15:23;;;;;;;4.40;2.65;;;9.20;86.40;;;;;;1872704;76;21030;-45
2022/01/01 10:17:53;;;;;;;3.83;2.30;;;9.30;86.40;;;;;;1872767;75;21124;-48
2022/01/01 10:20:24;;;;;;;2.37;2.02;;;9.30;86.40;;;;;;1872750;75;21021;-48
2022/01/01 10:22:53;;;;;;;3.58;1.87;;;9.30;86.30;;;;;;1872698;75;21029;-47
2022/01/01 10:28:03;;;;;;;2.02;1.65;;;9.40;87.20;;;;;;1853209;75;21042;-47
2022/01/01 10:30:36;;;;;;;10.00;2.80;;;9.30;86.60;;;;;;1872830;76;21425;-45
2022/01/01 10:33:19;;;;;;;5.03;2.40;;;9.40;87.10;;;;;;1872691;75;21029;-48
2022/01/01 10:35:53;;;;;;;3.33;1.62;;;9.30;86.70;;;;;;1872849;77;21033;-44
2022/01/01 10:38:28;;;;;;;3.07;2.00;;;9.30;86.50;;;;;;1872518;75;21503;-45
2022/01/01 10:41:08;;;;;;;3.08;2.10;;;9.30;86.60;;;;;;1872887;76;21029;-45
2022/01/01 10:43:39;;;;;;;3.37;2.58;;;9.30;86.60;;;;;;1872673;76;21131;-48
2022/01/01 10:46:13;;;;;;;4.75;2.37;;;9.30;86.80;;;;;;1872901;75;21052;-44
2022/01/01 10:51:19;;;;;;;4.12;2.70;;;9.30;86.70;;;;;;1872690;75;21045;-44
2022/01/01 10:53:51;;;;;;;3.08;2.35;;;9.30;86.70;;;;;;1872770;77;21037;-44
2022/01/01 10:56:22;;;;;;;6.47;2.70;;;9.40;86.60;;;;;;1842788;77;21607;-45
2022/01/01 10:59:03;;;;;;;4.28;2.67;;;9.40;86.60;;;;;;1850547;77;21561;-45
2022/01/01 11:01:34;;;;;;;4.30;2.85;;;9.40;87.00;;;;;;1850432;77;21106;-46
2022/01/01 11:04:05;;;;;;;3.58;2.20;;;9.40;86.40;;;;;;1850373;77;21011;-46
2022/01/01 11:06:34;;;;;;;4.25;2.72;;;9.50;85.60;;;;;;1850364;77;21039;-45
2022/01/01 11:09:04;;;;;;;3.10;2.22;;;9.40;85.90;;;;;;1850436;76;21063;-48
2022/01/01 11:11:35;;;;;;;4.40;3.12;;;9.40;85.80;;;;;;1850542;76;21048;-46
2022/01/01 11:14:08;;;;;;;5.10;3.33;;;9.40;85.90;;;;;;1850392;76;21076;-45
2022/01/01 11:16:37;;;;;;;2.80;2.02;;;9.40;86.20;;;;;;1850441;77;21129;-45
2022/01/01 11:19:07;;;;;;;3.15;2.27;;;9.30;86.30;;;;;;1850489;77;21052;-46
2022/01/01 11:21:36;;;;;;;3.20;2.77;;;9.30;86.50;;;;;;1850371;77;21109;-47
2022/01/01 11:24:07;;;;;;;5.65;2.95;;;9.30;86.90;;;;;;1850390;77;21044;-44
2022/01/01 11:26:36;;;;;;;2.98;2.40;;;9.30;87.10;;;;;;1850403;76;21040;-45
2022/01/01 11:29:06;;;;;;;4.67;2.90;;;9.20;87.40;;;;;;1850372;77;21101;-45
2022/01/01 11:31:37;;;;;;;5.17;2.75;;;9.20;87.30;;;;;;1850391;77;21047;-44
2022/01/01 11:34:08;;;;;;;6.37;1.95;;;9.20;87.40;;;;;;1850417;77;21110;-44
2022/01/01 11:36:37;;;;;;;4.90;2.65;;;9.20;87.20;;;;;;1850472;77;21093;-46
2022/01/01 11:39:14;;;;;;;3.70;3.10;;;9.30;87.10;;;;;;1850351;76;21047;-48
2022/01/01 11:41:44;;;;;;;5.95;3.15;;;9.20;87.30;;;;;;1850455;77;21044;-47
2022/01/01 11:44:35;;;;;;;5.17;2.95;;;9.20;87.10;;;;;;1850587;77;21036;-46
2022/01/01 11:47:09;;;;;;;3.87;2.75;;;9.20;87.30;;;;;;1850489;76;21521;-45
2022/01/01 11:49:40;;;;;;;3.12;2.35;;;9.30;87.40;;;;;;1849882;77;21142;-44
2022/01/01 11:52:09;;;;;;;5.17;2.80;;;9.30;87.50;;;;;;1850539;76;21052;-48
2022/01/01 11:54:42;;;;;;;4.47;2.77;;;9.20;87.30;;;;;;1850588;75;21048;-47
2022/01/01 11:57:20;;;;;;;5.22;3.17;;;9.20;87.30;;;;;;1872738;76;21109;-47
2022/01/01 12:00:03;;;;;;;8.05;2.65;;;9.30;87.20;;;;;;1872870;76;20994;-46
2022/01/01 12:02:35;;;;;;;6.97;3.17;;;9.30;87.20;;;;;;1867656;75;21049;-45
2022/01/01 12:05:16;;;;;;;3.87;2.15;;;9.20;87.00;;;;;;1872752;77;21103;-49
2022/01/01 12:07:59;;;;;;;3.10;1.85;;;9.20;87.00;;;;;;1872679;75;21037;-48
2022/01/01 12:10:35;;;;;;;8.43;2.72;;;9.20;86.50;;;;;;1872841;76;21083;-45
2022/01/01 12:13:10;;;;;;;2.87;2.00;;;9.20;86.30;;;;;;1872845;76;21046;-45
2022/01/01 12:15:42;;;;;;;3.90;2.52;;;9.20;86.20;;;;;;1872884;77;21030;-46
2022/01/01 12:18:19;;;;;;;5.35;2.65;;;9.20;86.10;;;;;;1872717;76;21200;-45
2022/01/01 12:21:03;;;;;;;7.53;4.12;;;9.20;86.10;;;;;;1872587;76;21026;-45
2022/01/01 12:23:36;;;;;;;3.72;2.77;;;9.20;86.10;;;;;;1872803;75;21030;-46
2022/01/01 12:26:11;;;;;;;3.52;2.52;;;9.20;86.10;;;;;;1872714;76;21526;-48
2022/01/01 12:28:42;;;;;;;4.62;2.65;;;9.20;86.30;;;;;;1872906;75;21106;-45
2022/01/01 12:31:24;;;;;;;5.17;2.62;;;9.20;85.90;;;;;;1872764;76;21025;-45
2022/01/01 12:33:59;;;;;;;3.17;2.35;;;9.20;85.80;;;;;;1872699;75;21042;-47
2022/01/01 12:36:28;;;;;;;4.05;3.08;;;9.10;85.80;;;;;;1872363;77;21006;-47
2022/01/01 12:39:00;;;;;;;3.65;2.58;;;9.10;86.10;;;;;;1871986;77;21037;-46
2022/01/01 12:41:37;;;;;;;5.08;3.35;;;9.10;86.10;;;;;;1872737;75;21102;-45
2022/01/01 12:44:11;;;;;;;3.60;2.85;;;9.10;85.80;;;;;;1872641;76;21197;-44
2022/01/01 12:47:03;;;;;;;4.62;2.47;;;9.10;85.80;;;;;;1872177;77;21057;-45
2022/01/01 12:49:32;;;;;;;4.03;1.82;;;9.10;85.80;;;;;;1871438;75;21046;-45
2022/01/01 12:52:01;;;;;;;5.65;3.35;;;9.10;85.40;;;;;;1872356;75;21061;-45
2022/01/01 12:54:30;;;;;;;5.45;3.00;;;9.00;85.80;;;;;;1872818;76;21113;-45
2022/01/01 12:57:01;;;;;;;3.90;2.22;;;9.10;85.90;;;;;;1872721;75;21065;-44
2022/01/01 12:59:31;;;;;;;3.02;2.22;;;9.00;85.60;;;;;;1872861;75;21029;-45
2022/01/01 13:02:03;;;;;;;3.77;2.25;;;9.00;85.20;;;;;;1872724;75;21026;-44
2022/01/01 13:04:34;;;;;;;5.00;2.22;;;9.00;85.50;;;;;;1872656;75;21103;-44
2022/01/01 13:07:05;;;;;;;3.58;2.50;;;9.00;85.60;;;;;;1872827;75;21043;-47
2022/01/01 13:09:34;;;;;;;3.37;2.35;;;9.00;85.70;;;;;;1872833;75;21034;-44
2022/01/01 13:12:09;;;;;;;4.87;2.52;;;9.00;86.00;;;;;;1872784;76;21078;-45
2022/01/01 13:14:38;;;;;;;;;;;9.00;86.10;;;;;;1875664;76;21124;-45
2022/01/01 13:17:07;;;;;;;3.52;2.30;;;9.00;86.10;;;;;;1872788;75;20343;-44
2022/01/01 13:19:37;;;;;;;2.30;1.80;;;8.90;86.10;;;;;;1872757;75;21120;-44